createdAt,value
2018-10-09T00:00:43.368Z,99.56
2018-10-09T00:03:48.277Z,99.75
2018-10-09T00:06:52.884Z,99.79
2018-10-09T00:09:57.475Z,99.72
2018-10-09T00:13:02.079Z,99.30
2018-10-09T00:16:06.790Z,99.96
2018-10-09T00:19:11.601Z,99.84
2018-10-09T00:22:16.507Z,99.33
2018-10-09T00:25:21.076Z,99.03
2018-10-09T00:28:25.780Z,99.42
2018-10-09T00:31:30.340Z,98.61
2018-10-09T00:34:34.981Z,99.26
2018-10-09T00:37:39.596Z,98.70
2018-10-09T00:40:44.346Z,98.71
2018-10-09T00:43:49.032Z,99.23
2018-10-09T00:46:53.669Z,98.36
2018-10-09T00:49:58.389Z,99.00
2018-10-09T00:53:03.069Z,98.99
2018-10-09T00:56:07.939Z,98.48
2018-10-09T00:59:12.702Z,98.66
2018-10-09T01:02:17.386Z,98.69
2018-10-09T01:05:22.302Z,97.72
2018-10-09T01:08:26.900Z,98.17
2018-10-09T01:11:31.698Z,97.77
2018-10-09T01:14:36.386Z,97.72
2018-10-09T01:17:40.950Z,97.86
2018-10-09T01:20:45.557Z,98.33
2018-10-09T01:23:50.215Z,98.40
2018-10-09T01:26:55.112Z,97.76
2018-10-09T01:29:59.821Z,98.52
2018-10-09T01:33:05.158Z,98.35
2018-10-09T01:36:10.065Z,98.24
2018-10-09T01:39:14.626Z,98.39
2018-10-09T01:42:19.322Z,97.83
2018-10-09T01:45:23.948Z,97.53
2018-10-09T01:48:28.629Z,97.90
2018-10-09T01:51:33.392Z,97.83
2018-10-09T01:54:37.932Z,97.21
2018-10-09T01:57:42.541Z,97.52
2018-10-09T02:00:47.310Z,98.13
2018-10-09T02:03:51.901Z,97.88
2018-10-09T02:06:56.773Z,97.82
2018-10-09T02:10:01.339Z,97.44
2018-10-09T02:13:06.041Z,97.59
2018-10-09T02:16:10.918Z,97.28
2018-10-09T02:19:15.598Z,97.01
2018-10-09T02:22:20.276Z,97.61
2018-10-09T02:25:24.803Z,96.40
2018-10-09T02:28:29.390Z,96.71
2018-10-09T02:31:34.061Z,97.44
2018-10-09T02:34:38.707Z,96.80
2018-10-09T02:37:43.886Z,97.05
2018-10-09T02:40:48.492Z,96.76
2018-10-09T02:43:53.279Z,96.52
2018-10-09T02:46:57.920Z,96.60
2018-10-09T02:50:02.670Z,97.29
2018-10-09T02:53:07.469Z,97.69
2018-10-09T02:56:12.051Z,97.64
2018-10-09T02:59:16.737Z,97.03
2018-10-09T03:02:21.467Z,97.53
2018-10-09T03:05:26.111Z,96.88
2018-10-09T03:08:30.873Z,96.61
2018-10-09T03:11:35.349Z,96.50
2018-10-09T03:14:39.974Z,96.95
2018-10-09T03:17:44.498Z,96.96
2018-10-09T03:20:49.336Z,96.49
2018-10-09T03:23:53.970Z,96.89
2018-10-09T03:26:58.530Z,96.20
2018-10-09T03:30:03.077Z,96.74
2018-10-09T03:33:07.729Z,96.78
2018-10-09T03:36:12.524Z,96.59
2018-10-09T03:39:17.120Z,96.81
2018-10-09T03:42:21.804Z,96.50
2018-10-09T03:45:26.408Z,96.97
2018-10-09T03:48:30.972Z,96.48
2018-10-09T03:51:36.230Z,96.74
2018-10-09T03:54:40.864Z,96.78
2018-10-09T03:57:45.448Z,97.65
2018-10-09T04:00:50.030Z,98.09
2018-10-09T04:03:54.805Z,96.86
2018-10-09T04:06:59.581Z,98.01
2018-10-09T04:10:04.237Z,97.82
2018-10-09T04:13:08.817Z,98.85
2018-10-09T04:16:13.536Z,99.18
2018-10-09T04:19:18.136Z,99.09
2018-10-09T04:22:23.830Z,98.61
2018-10-09T04:25:28.402Z,98.08
2018-10-09T04:28:33.083Z,98.63
2018-10-09T04:31:37.782Z,98.28
2018-10-09T04:34:42.359Z,98.13
2018-10-09T04:37:46.947Z,98.05
2018-10-09T04:40:51.572Z,98.77
2018-10-09T04:43:56.229Z,98.26
2018-10-09T04:47:00.838Z,98.88
2018-10-09T04:50:05.796Z,98.66
2018-10-09T04:53:10.958Z,97.49
2018-10-09T04:56:16.032Z,98.32
2018-10-09T04:59:20.647Z,96.71
2018-10-09T05:02:25.812Z,97.56
2018-10-09T05:05:30.670Z,96.84
2018-10-09T05:08:35.488Z,96.61
2018-10-09T05:11:40.213Z,97.07
2018-10-09T05:14:45.133Z,97.52
2018-10-09T05:17:49.787Z,97.54
2018-10-09T05:20:54.564Z,97.74
2018-10-09T05:23:59.654Z,98.56
2018-10-09T05:27:04.290Z,97.45
2018-10-09T05:30:09.332Z,97.68
2018-10-09T05:33:14.238Z,97.26
2018-10-09T05:36:18.851Z,98.12
2018-10-09T05:39:23.553Z,98.68
2018-10-09T05:42:28.539Z,97.79
2018-10-09T05:45:37.194Z,97.99
2018-10-09T05:48:42.324Z,97.61
2018-10-09T05:51:47.085Z,97.72
2018-10-09T05:54:51.897Z,97.95
2018-10-09T05:57:56.565Z,98.35
2018-10-09T06:01:08.381Z,97.98
2018-10-09T06:04:16.470Z,97.71
2018-10-09T06:07:21.199Z,97.15
2018-10-09T06:10:25.983Z,97.05
2018-10-09T06:13:30.889Z,96.56
2018-10-09T06:16:35.555Z,96.92
2018-10-09T06:19:47.133Z,97.25
2018-10-09T06:22:52.712Z,97.03
2018-10-09T06:25:57.319Z,97.24
2018-10-09T06:29:03.259Z,97.12
2018-10-09T06:32:07.910Z,96.68
2018-10-09T06:35:12.630Z,96.85
2018-10-09T06:38:17.439Z,96.30
2018-10-09T06:41:22.601Z,96.55
2018-10-09T06:44:27.235Z,96.48
2018-10-09T06:47:32.202Z,97.22
2018-10-09T06:50:36.829Z,96.15
2018-10-09T06:53:41.776Z,96.68
2018-10-09T06:56:46.448Z,96.21
2018-10-09T06:59:51.154Z,95.25
2018-10-09T07:02:55.849Z,95.04
2018-10-09T07:06:00.826Z,93.90
2018-10-09T07:09:10.404Z,93.79
2018-10-09T07:12:15.156Z,93.38
2018-10-09T07:15:19.911Z,92.45
2018-10-09T07:18:24.680Z,92.64
2018-10-09T07:21:29.301Z,92.98
2018-10-09T07:24:34.138Z,92.64
2018-10-09T07:27:38.858Z,92.04
2018-10-09T07:30:43.560Z,92.46
2018-10-09T07:33:48.394Z,92.45
2018-10-09T07:36:53.055Z,92.41
2018-10-09T07:39:57.839Z,91.30
2018-10-09T07:43:03.425Z,90.76
2018-10-09T07:46:08.263Z,91.97
2018-10-09T07:49:13.167Z,91.40
2018-10-09T07:52:18.073Z,91.47
2018-10-09T07:55:22.736Z,91.06
2018-10-09T07:58:27.303Z,90.63
2018-10-09T08:01:31.919Z,91.30
2018-10-09T08:04:36.699Z,89.18
2018-10-09T08:07:41.253Z,89.62
2018-10-09T08:10:46.239Z,89.24
2018-10-09T08:13:51.226Z,88.03
2018-10-09T08:16:56.357Z,87.82
2018-10-09T08:20:00.963Z,88.81
2018-10-09T08:23:05.728Z,89.41
2018-10-09T08:26:10.477Z,89.30
2018-10-09T08:29:15.243Z,88.05
2018-10-09T08:32:19.969Z,86.25
2018-10-09T08:35:24.503Z,86.87
2018-10-09T08:38:30.115Z,85.47
2018-10-09T08:41:34.727Z,87.27
2018-10-09T08:44:39.393Z,87.77
2018-10-09T08:47:44.111Z,84.85
2018-10-09T08:50:48.799Z,85.27
2018-10-09T08:53:53.856Z,85.33
2018-10-09T08:56:58.480Z,85.69
2018-10-09T09:00:03.132Z,84.91
2018-10-09T09:03:08.346Z,86.38
2018-10-09T09:06:12.996Z,86.17
2018-10-09T09:09:17.834Z,85.80
2018-10-09T09:12:22.642Z,84.71
2018-10-09T09:15:27.479Z,85.08
2018-10-09T09:18:32.129Z,84.93
2018-10-09T09:21:37.114Z,85.75
2018-10-09T09:24:41.853Z,84.54
2018-10-09T09:27:46.549Z,84.42
2018-10-09T09:30:51.355Z,81.67
2018-10-09T09:33:56.048Z,82.48
2018-10-09T09:37:00.738Z,79.85
2018-10-09T09:40:05.455Z,79.28
2018-10-09T09:43:10.054Z,78.12
2018-10-09T09:46:15.061Z,77.91
2018-10-09T09:49:20.094Z,78.71
2018-10-09T09:52:25.076Z,77.53
2018-10-09T09:55:29.998Z,76.00
2018-10-09T09:58:34.986Z,77.11
2018-10-09T10:01:43.904Z,76.39
2018-10-09T10:04:48.555Z,76.12
2018-10-09T10:07:53.590Z,77.40
2018-10-09T10:10:58.467Z,78.08
2018-10-09T10:14:03.193Z,78.64
2018-10-09T10:17:07.870Z,78.79
2018-10-09T10:20:13.256Z,78.13
2018-10-09T10:23:18.232Z,77.92
2018-10-09T10:26:23.065Z,77.53
2018-10-09T10:29:27.914Z,78.90
2018-10-09T10:32:32.552Z,79.86
2018-10-09T10:35:37.174Z,78.13
2018-10-09T10:38:41.833Z,77.51
2018-10-09T10:41:46.633Z,75.17
2018-10-09T10:44:51.210Z,73.99
2018-10-09T10:47:55.879Z,75.19
2018-10-09T10:51:00.571Z,74.95
2018-10-09T10:54:05.470Z,73.64
2018-10-09T10:57:10.029Z,71.26
2018-10-09T11:00:14.795Z,71.99
2018-10-09T11:03:19.497Z,71.67
2018-10-09T11:06:24.215Z,71.78
2018-10-09T11:09:28.899Z,71.71
2018-10-09T11:12:33.535Z,73.66
2018-10-09T11:15:38.155Z,73.11
2018-10-09T11:18:42.977Z,75.43
2018-10-09T11:21:47.770Z,73.59
2018-10-09T11:24:53.263Z,73.83
2018-10-09T11:27:57.838Z,76.40
2018-10-09T11:31:02.456Z,75.11
2018-10-09T11:34:07.194Z,77.78
2018-10-09T11:37:12.451Z,78.01
2018-10-09T11:40:17.431Z,77.58
2018-10-09T11:43:22.020Z,77.43
2018-10-09T11:46:26.818Z,76.59
2018-10-09T11:49:31.648Z,76.69
2018-10-09T11:52:36.478Z,76.77
2018-10-09T11:55:41.081Z,75.30
2018-10-09T11:58:45.900Z,73.58
2018-10-09T12:01:50.669Z,73.20
2018-10-09T12:04:55.288Z,73.29
2018-10-09T12:07:59.897Z,72.19
2018-10-09T12:11:04.994Z,74.14
2018-10-09T12:14:09.973Z,71.21
2018-10-09T12:17:14.593Z,71.49
2018-10-09T12:20:19.417Z,72.06
2018-10-09T12:23:24.109Z,71.54
2018-10-09T12:26:28.892Z,71.99
2018-10-09T12:29:33.667Z,71.96
2018-10-09T12:32:38.223Z,71.37
2018-10-09T12:35:43.856Z,70.05
2018-10-09T12:38:48.600Z,71.20
2018-10-09T12:41:53.261Z,70.44
2018-10-09T12:44:58.009Z,69.64
2018-10-09T12:48:02.838Z,68.32
2018-10-09T12:51:07.752Z,67.72
2018-10-09T12:54:12.480Z,67.76
2018-10-09T12:57:17.804Z,69.50
2018-10-09T13:00:22.937Z,68.60
2018-10-09T13:03:27.581Z,70.00
2018-10-09T13:06:32.321Z,69.07
2018-10-09T13:09:37.396Z,69.39
2018-10-09T13:12:42.306Z,68.71
2018-10-09T13:15:46.999Z,68.29
2018-10-09T13:18:51.910Z,68.02
2018-10-09T13:21:56.962Z,68.87
2018-10-09T13:25:01.453Z,68.75
2018-10-09T13:28:06.369Z,67.60
2018-10-09T13:31:11.283Z,68.31
2018-10-09T13:34:15.935Z,66.06
2018-10-09T13:37:20.549Z,67.05
2018-10-09T13:40:25.151Z,66.91
2018-10-09T13:43:29.889Z,65.38
2018-10-09T13:46:35.028Z,65.19
2018-10-09T13:49:39.815Z,65.17
2018-10-09T13:52:44.594Z,65.58
2018-10-09T13:55:49.329Z,65.75
2018-10-09T13:58:54.219Z,64.61
2018-10-09T14:01:58.962Z,65.26
2018-10-09T14:05:03.798Z,65.88
2018-10-09T14:08:08.560Z,65.51
2018-10-09T14:11:13.280Z,65.27
2018-10-09T14:14:18.061Z,66.14
2018-10-09T14:17:22.884Z,65.77
2018-10-09T14:20:27.826Z,66.20
2018-10-09T14:23:32.529Z,66.53
2018-10-09T14:26:37.610Z,65.93
2018-10-09T14:29:44.853Z,65.83
2018-10-09T14:32:49.549Z,64.91
2018-10-09T14:35:54.305Z,66.06
2018-10-09T14:38:58.990Z,67.26
2018-10-09T14:42:03.533Z,67.03
2018-10-09T14:45:08.297Z,65.87
2018-10-09T14:48:12.955Z,66.61
2018-10-09T14:51:17.639Z,67.08
2018-10-09T14:54:22.454Z,67.34
2018-10-09T14:57:27.142Z,68.54
2018-10-09T15:00:31.853Z,69.11
2018-10-09T15:03:36.468Z,69.72
2018-10-09T15:06:42.258Z,69.92
2018-10-09T15:09:54.344Z,70.28
2018-10-09T15:12:59.763Z,70.94
2018-10-09T15:16:04.450Z,70.63
2018-10-09T15:19:09.501Z,71.33
2018-10-09T15:22:14.297Z,71.46
2018-10-09T15:25:19.431Z,73.01
2018-10-09T15:28:24.229Z,72.22
2018-10-09T15:31:29.055Z,71.92
2018-10-09T15:34:33.877Z,72.45
2018-10-09T15:37:38.629Z,72.95
2018-10-09T15:40:43.647Z,73.16
2018-10-09T15:43:48.509Z,73.78
2018-10-09T15:46:53.299Z,74.44
2018-10-09T15:49:58.082Z,74.58
2018-10-09T15:53:02.882Z,75.05
2018-10-09T15:56:07.844Z,76.09
2018-10-09T15:59:13.453Z,76.11
2018-10-09T16:02:18.370Z,75.88
2018-10-09T16:05:23.062Z,76.44
2018-10-09T16:08:27.664Z,77.60
2018-10-09T16:11:32.473Z,78.16
2018-10-09T16:14:37.058Z,79.06
2018-10-09T16:17:42.180Z,79.74
2018-10-09T16:20:46.816Z,80.33
2018-10-09T16:23:51.278Z,81.54
2018-10-09T16:26:55.933Z,81.48
2018-10-09T16:30:00.618Z,82.07
2018-10-09T16:33:05.995Z,82.97
2018-10-09T16:36:10.903Z,83.61
2018-10-09T16:39:15.585Z,84.87
2018-10-09T16:42:20.296Z,85.76
2018-10-09T16:45:24.937Z,86.20
2018-10-09T16:48:29.652Z,87.20
2018-10-09T16:51:34.289Z,88.04
2018-10-09T16:54:39.190Z,88.68
2018-10-09T16:57:43.995Z,90.37
2018-10-09T17:00:48.831Z,89.82
2018-10-09T17:03:53.695Z,90.04
2018-10-09T17:06:58.320Z,90.30
2018-10-09T17:10:03.260Z,91.01
2018-10-09T17:13:08.145Z,90.99
2018-10-09T17:16:13.080Z,91.69
2018-10-09T17:19:17.800Z,92.14
2018-10-09T17:22:22.715Z,92.31
2018-10-09T17:25:27.367Z,92.24
2018-10-09T17:28:32.134Z,92.95
2018-10-09T17:31:36.895Z,93.25
2018-10-09T17:34:41.481Z,93.66
2018-10-09T17:37:46.223Z,94.53
2018-10-09T17:40:50.988Z,94.75
2018-10-09T17:43:55.662Z,94.78
2018-10-09T17:47:04.516Z,94.50
2018-10-09T17:50:09.727Z,95.06
2018-10-09T17:53:14.608Z,95.42
2018-10-09T17:56:19.476Z,95.31
2018-10-09T17:59:24.085Z,96.29
2018-10-09T18:02:28.748Z,96.38
2018-10-09T18:05:33.357Z,95.89
2018-10-09T18:08:38.125Z,96.15
2018-10-09T18:11:42.720Z,96.60
2018-10-09T18:14:47.463Z,96.39
2018-10-09T18:17:52.200Z,96.04
2018-10-09T18:20:56.819Z,96.42
2018-10-09T18:24:01.455Z,97.14
2018-10-09T18:27:06.335Z,96.95
2018-10-09T18:30:11.637Z,97.50
2018-10-09T18:33:16.836Z,96.77
2018-10-09T18:36:21.483Z,97.20
2018-10-09T18:39:26.520Z,97.63
2018-10-09T18:42:31.584Z,97.16
2018-10-09T18:45:36.645Z,97.32
2018-10-09T18:48:41.629Z,98.29
2018-10-09T18:51:46.453Z,98.01
2018-10-09T18:54:51.547Z,97.75
2018-10-09T18:57:56.297Z,98.02
2018-10-09T19:01:01.330Z,98.43
2018-10-09T19:04:06.054Z,98.39
2018-10-09T19:07:10.925Z,98.56
2018-10-09T19:10:15.756Z,98.66
2018-10-09T19:13:20.806Z,98.71
2018-10-09T19:16:26.120Z,98.93
2018-10-09T19:19:30.954Z,98.69
2018-10-09T19:22:36.000Z,99.02
2018-10-09T19:25:40.931Z,98.79
2018-10-09T19:28:45.669Z,99.11
2018-10-09T19:31:50.587Z,99.15
2018-10-09T19:34:55.340Z,98.84
2018-10-09T19:38:00.321Z,98.64
2018-10-09T19:41:05.134Z,98.71
2018-10-09T19:44:09.990Z,99.46
2018-10-09T19:47:14.796Z,99.14
2018-10-09T19:50:19.629Z,99.40
2018-10-09T19:53:24.559Z,99.58
2018-10-09T19:56:29.318Z,99.79
2018-10-09T19:59:34.126Z,99.57
2018-10-09T20:02:38.908Z,99.89
2018-10-09T20:05:45.114Z,99.81
2018-10-09T20:08:50.258Z,99.58
2018-10-09T20:11:54.927Z,100.00
2018-10-09T20:14:59.863Z,99.78
2018-10-09T20:18:04.611Z,100.00
2018-10-09T20:21:09.813Z,99.62
2018-10-09T20:24:14.706Z,99.33
2018-10-09T20:27:19.387Z,99.31
2018-10-09T20:30:23.963Z,100.00
2018-10-09T20:33:28.827Z,99.38
2018-10-09T20:36:33.455Z,99.68
2018-10-09T20:39:38.087Z,100.00
2018-10-09T20:42:42.847Z,100.00
2018-10-09T20:45:47.418Z,100.00
2018-10-09T20:48:52.103Z,100.00
2018-10-09T20:51:56.797Z,100.00
2018-10-09T20:55:01.485Z,100.00
2018-10-09T20:58:06.272Z,100.00
2018-10-09T21:01:10.852Z,100.00
2018-10-09T21:04:15.516Z,100.00
2018-10-09T21:07:20.074Z,99.97
2018-10-09T21:10:24.774Z,100.00
2018-10-09T21:13:29.447Z,100.00
2018-10-09T21:16:34.053Z,100.00
2018-10-09T21:19:39.021Z,100.00
2018-10-09T21:22:43.631Z,100.00
2018-10-09T21:25:48.203Z,100.00
2018-10-09T21:28:52.806Z,100.00
2018-10-09T21:31:57.396Z,100.00
2018-10-09T21:35:02.181Z,100.00
2018-10-09T21:38:07.113Z,100.00
2018-10-09T21:41:11.798Z,100.00
2018-10-09T21:44:16.512Z,100.00
2018-10-09T21:47:21.177Z,100.00
2018-10-09T21:50:25.963Z,100.00
2018-10-09T21:53:30.622Z,100.00
2018-10-09T21:56:35.268Z,100.00
2018-10-09T21:59:39.927Z,100.00
2018-10-09T22:02:44.609Z,100.00
2018-10-09T22:05:49.177Z,100.00
2018-10-09T22:08:53.855Z,100.00
2018-10-09T22:11:58.408Z,100.00
2018-10-09T22:15:03.110Z,100.00
2018-10-09T22:18:07.724Z,100.00
2018-10-09T22:21:12.478Z,100.00
2018-10-09T22:24:17.524Z,100.00
2018-10-09T22:27:22.732Z,100.00
2018-10-09T22:30:27.348Z,100.00
2018-10-09T22:33:31.901Z,100.00
2018-10-09T22:36:36.475Z,100.00
2018-10-09T22:39:41.225Z,100.00
2018-10-09T22:42:45.901Z,100.00
2018-10-09T22:45:50.485Z,100.00
2018-10-09T22:48:55.175Z,100.00
2018-10-09T22:51:59.965Z,100.00
2018-10-09T22:55:04.787Z,100.00
2018-10-09T22:58:09.373Z,100.00
2018-10-09T23:01:13.975Z,100.00
2018-10-09T23:04:18.689Z,100.00
2018-10-09T23:07:23.710Z,100.00
2018-10-09T23:10:28.375Z,100.00
2018-10-09T23:13:33.166Z,100.00
2018-10-09T23:16:38.355Z,100.00
2018-10-09T23:19:42.969Z,100.00
2018-10-09T23:22:47.605Z,100.00
2018-10-09T23:25:52.541Z,100.00
2018-10-09T23:28:57.198Z,100.00
2018-10-09T23:32:01.733Z,100.00
2018-10-09T23:35:06.562Z,100.00
2018-10-09T23:38:11.138Z,100.00
2018-10-09T23:41:15.859Z,100.00
2018-10-09T23:44:20.596Z,100.00
2018-10-09T23:47:25.222Z,100.00
2018-10-09T23:50:29.896Z,100.00
2018-10-09T23:53:34.740Z,100.00
2018-10-09T23:56:39.421Z,100.00
2018-10-09T23:59:44.066Z,100.00
